Time;durP1;ratioP1;P1;durP2;ratioP2;P2;SDS_P1;SDS_P2;PMS_P1;PMS_P2;Temp;Humidity;BMP_temperature;BMP_pressure;BME280_temperature;BME280_humidity;BME280_pressure;Samples;Min_cycle;Max_cycle;Signal;HPM_P1;HPM_P2
2024/02/05 00:00:29;;;;;;;18.02;3.38;;;;;;;4.34;100.00;99477.84;5115802;28;20700;-68
2024/02/05 00:02:56;;;;;;;24.40;3.35;;;;;;;4.23;100.00;99485.31;5114690;28;20024;-68
2024/02/05 00:05:21;;;;;;;20.45;3.75;;;;;;;4.25;100.00;99474.50;5116713;28;20038;-68
2024/02/05 00:07:47;;;;;;;22.50;3.97;;;;;;;4.34;100.00;99475.19;5116035;28;20024;-68
2024/02/05 00:10:12;;;;;;;28.33;4.28;;;;;;;4.08;100.00;99447.31;5116467;28;20490;-69
2024/02/05 00:12:37;;;;;;;18.75;2.92;;;;;;;4.26;100.00;99470.00;5115129;28;20019;-68
2024/02/05 00:15:05;;;;;;;17.50;3.53;;;;;;;4.28;100.00;99474.13;5116367;28;20031;-68
2024/02/05 00:17:31;;;;;;;22.48;3.92;;;;;;;4.33;100.00;99484.19;5115217;28;20035;-68
2024/02/05 00:19:56;;;;;;;22.20;3.63;;;;;;;4.31;100.00;99470.25;5115108;28;20023;-68
2024/02/05 00:22:22;;;;;;;18.98;3.53;;;;;;;4.24;100.00;99447.06;5081354;28;20398;-68
2024/02/05 00:24:47;;;;;;;14.98;2.80;;;;;;;4.31;100.00;99463.09;5116122;28;20034;-68
2024/02/05 00:27:12;;;;;;;21.52;3.30;;;;;;;4.35;100.00;99474.19;5115859;28;20479;-68
2024/02/05 00:29:38;;;;;;;24.58;3.95;;;;;;;4.18;100.00;99450.47;5114946;28;20028;-72
2024/02/05 00:32:04;;;;;;;29.60;4.35;;;;;;;4.18;100.00;99454.97;5114477;28;20541;-68
2024/02/05 00:34:29;;;;;;;26.40;3.83;;;;;;;4.34;100.00;99472.50;5114773;28;20032;-68
2024/02/05 00:36:55;;;;;;;28.63;4.88;;;;;;;4.28;100.00;99482.09;5114368;28;20059;-69
2024/02/05 00:39:20;;;;;;;28.80;3.17;;;;;;;4.27;100.00;99458.31;5116226;28;20073;-69
2024/02/05 00:41:46;;;;;;;23.58;3.35;;;;;;;4.27;100.00;99458.31;5116500;28;20546;-69
2024/02/05 00:44:11;;;;;;;28.27;5.10;;;;;;;4.42;100.00;99485.72;5116967;28;20028;-69
2024/02/05 00:46:37;;;;;;;18.25;4.47;;;;;;;4.38;100.00;99487.13;5119932;28;20072;-68
2024/02/05 00:49:04;;;;;;;22.65;4.18;;;;;;;4.45;100.00;99477.34;5118691;28;20039;-68
2024/02/05 00:51:30;;;;;;;20.63;3.72;;;;;;;4.39;100.00;99451.47;5120318;28;20051;-68
2024/02/05 00:53:57;;;;;;;20.58;4.25;;;;;;;4.43;100.00;99474.03;5101438;28;20120;-68
2024/02/05 00:56:23;;;;;;;26.33;4.45;;;;;;;4.46;100.00;99490.44;5119142;28;20032;-69
2024/02/05 00:58:49;;;;;;;30.75;5.65;;;;;;;4.31;100.00;99444.44;5118358;28;20027;-70
2024/02/05 01:01:14;;;;;;;21.58;3.65;;;;;;;4.52;100.00;99486.22;5101923;28;20030;-68
2024/02/05 01:03:40;;;;;;;24.60;4.70;;;;;;;4.23;100.00;99445.38;5118330;28;20027;-68
2024/02/05 01:06:06;;;;;;;31.77;5.93;;;;;;;4.46;100.00;99478.97;5118445;28;20024;-68
2024/02/05 01:08:32;;;;;;;19.90;3.72;;;;;;;4.46;100.00;99489.63;5101239;28;20097;-68
2024/02/05 01:10:57;;;;;;;26.30;4.95;;;;;;;4.50;100.00;99484.75;5117904;28;20039;-68
2024/02/05 01:13:22;;;;;;;23.88;4.18;;;;;;;4.50;100.00;99479.41;5119536;28;20435;-69
2024/02/05 01:15:48;;;;;;;29.15;4.53;;;;;;;4.48;100.00;99479.63;5119091;28;20015;-68
2024/02/05 01:18:14;;;;;;;27.33;5.13;;;;;;;4.51;100.00;99465.09;5117725;28;20035;-68
2024/02/05 01:20:39;;;;;;;23.65;4.32;;;;;;;4.51;100.00;99475.75;5100770;28;20401;-68
2024/02/05 01:23:05;;;;;;;26.58;4.40;;;;;;;4.48;100.00;99458.31;5118861;28;20525;-68
2024/02/05 01:25:30;;;;;;;24.88;4.22;;;;;;;4.51;100.00;99481.09;5119275;28;20033;-73
2024/02/05 01:27:56;;;;;;;35.88;5.63;;;;;;;4.42;100.00;99459.06;5118039;28;20525;-69
2024/02/05 01:30:21;;;;;;;30.05;5.32;;;;;;;4.51;100.00;99481.09;5118192;28;20046;-68
2024/02/05 01:32:46;;;;;;;29.80;4.55;;;;;;;4.56;100.00;99479.47;5119223;28;20055;-68
2024/02/05 01:35:12;;;;;;;23.83;4.57;;;;;;;4.46;100.00;99473.66;5084789;28;20031;-69
2024/02/05 01:37:38;;;;;;;26.30;4.43;;;;;;;4.48;100.00;99476.97;5120056;28;20031;-68
2024/02/05 01:40:09;;;;;;;21.67;4.55;;;;;;;4.48;100.00;99485.78;5120374;27;20089;-69
2024/02/05 01:42:39;;;;;;;31.85;4.68;;;;;;;4.38;100.00;99465.81;5117916;28;20057;-69
2024/02/05 01:45:05;;;;;;;25.73;4.18;;;;;;;4.43;100.00;99482.03;5119625;28;20070;-69
2024/02/05 01:47:36;;;;;;;25.55;4.45;;;;;;;4.46;100.00;99505.63;5100965;28;20032;-69
2024/02/05 01:50:05;;;;;;;35.63;4.47;;;;;;;4.30;100.00;99468.59;5118064;28;20038;-68
2024/02/05 01:52:33;;;;;;;29.25;4.90;;;;;;;4.42;100.00;99497.19;5118882;28;20027;-69
2024/02/05 01:54:59;;;;;;;34.78;5.32;;;;;;;4.34;100.00;99486.69;5117825;28;20076;-68
2024/02/05 01:57:25;;;;;;;17.55;3.45;;;;;;;4.42;100.00;99512.34;5117945;28;20110;-69
2024/02/05 01:59:50;;;;;;;26.52;5.47;;;;;;;4.43;100.00;99511.31;5117599;28;20034;-69
2024/02/05 02:02:16;;;;;;;28.98;4.75;;;;;;;4.39;100.00;99499.41;5119568;28;20453;-68
2024/02/05 02:04:42;;;;;;;28.70;4.15;;;;;;;4.41;100.00;99500.88;5119564;28;20019;-68
2024/02/05 02:07:10;;;;;;;27.17;4.78;;;;;;;4.38;100.00;99503.09;5118398;28;20026;-68
2024/02/05 02:09:35;;;;;;;20.25;3.80;;;;;;;4.29;100.00;99501.56;5118515;28;20031;-69
2024/02/05 02:12:02;;;;;;;29.75;4.45;;;;;;;4.37;100.00;99517.41;5101601;28;20024;-69
2024/02/05 02:14:28;;;;;;;24.30;3.85;;;;;;;4.36;100.00;99505.13;5119475;28;20461;-68
2024/02/05 02:16:54;;;;;;;34.17;4.50;;;;;;;4.34;100.00;99531.94;5119336;27;20050;-68
2024/02/05 02:19:22;;;;;;;32.10;4.45;;;;;;;4.31;100.00;99524.34;5119000;28;20266;-70
2024/02/05 02:22:16;;;;;;;26.13;4.13;;;;;;;4.22;100.00;99534.28;5117669;28;20406;-70
2024/02/05 02:24:42;;;;;;;20.17;3.30;;;;;;;4.05;100.00;99492.94;5116268;28;20046;-70
2024/02/05 02:27:07;;;;;;;20.10;3.28;;;;;;;4.17;100.00;99523.38;5098308;28;20483;-68
2024/02/05 02:29:33;;;;;;;21.05;3.67;;;;;;;4.16;100.00;99510.25;5114728;28;20035;-68
2024/02/05 02:32:19;;;;;;;13.32;2.30;;;;;;;4.02;100.00;99516.44;5116470;28;20028;-68
2024/02/05 02:34:48;;;;;;;11.95;2.28;;;;;;;4.21;100.00;99553.13;5115995;28;20047;-68
2024/02/05 02:37:16;;;;;;;17.42;2.55;;;;;;;4.19;100.00;99532.00;5114748;28;20047;-68
2024/02/05 02:40:09;;;;;;;10.50;1.92;;;;;;;4.21;100.00;99545.13;5115586;28;20031;-68
2024/02/05 02:42:41;;;;;;;12.40;2.63;;;;;;;4.19;100.00;99526.66;5115706;28;20019;-68
2024/02/05 02:45:12;;;;;;;14.48;2.05;;;;;;;4.23;100.00;99549.22;5115378;28;20024;-68
2024/02/05 02:47:37;;;;;;;16.73;2.40;;;;;;;4.18;100.00;99541.00;5113468;28;20034;-70
2024/02/05 02:50:03;;;;;;;10.98;2.22;;;;;;;4.11;100.00;99525.97;5114221;28;20036;-68
2024/02/05 02:52:29;;;;;;;14.10;2.63;;;;;;;4.15;100.00;99554.69;5113657;28;20042;-68
2024/02/05 02:54:55;;;;;;;26.30;3.97;;;;;;;4.12;100.00;99568.38;5113909;28;20023;-68
2024/02/05 02:57:20;;;;;;;20.38;3.15;;;;;;;4.16;100.00;99550.19;5114263;28;20023;-68
2024/02/05 02:59:46;;;;;;;19.95;2.80;;;;;;;4.16;100.00;99574.13;5114645;28;20511;-68
2024/02/05 03:02:12;;;;;;;15.18;3.03;;;;;;;4.08;100.00;99545.81;5114821;28;20106;-69
2024/02/05 03:04:37;;;;;;;17.65;2.70;;;;;;;4.15;100.00;99569.84;5115314;28;20031;-69
2024/02/05 03:07:02;;;;;;;14.65;2.38;;;;;;;4.04;100.00;99559.66;5115209;28;20031;-69
2024/02/05 03:09:28;;;;;;;16.35;2.00;;;;;;;4.06;100.00;99562.97;5115168;28;20031;-68
2024/02/05 03:11:54;;;;;;;17.67;3.10;;;;;;;4.01;100.00;99539.59;5115211;28;20039;-68
2024/02/05 03:14:23;;;;;;;17.98;2.72;;;;;;;3.67;100.00;99493.13;5116420;28;20034;-68
2024/02/05 03:16:49;;;;;;;21.60;3.92;;;;;;;4.14;100.00;99555.72;5117066;28;20076;-68
2024/02/05 03:19:16;;;;;;;17.92;3.55;;;;;;;4.11;100.00;99552.59;5117075;28;20110;-70
2024/02/05 03:21:41;;;;;;;13.60;2.15;;;;;;;4.15;100.00;99554.69;5116773;28;20354;-70
2024/02/05 03:24:06;;;;;;;16.85;3.25;;;;;;;4.12;100.00;99549.72;5115881;28;20535;-69
2024/02/05 03:26:33;;;;;;;15.45;2.15;;;;;;;4.05;100.00;99556.81;5115029;28;20386;-68
2024/02/05 03:28:59;;;;;;;21.70;3.72;;;;;;;3.96;100.00;99542.78;5116201;28;20073;-68
2024/02/05 03:31:24;;;;;;;15.38;2.25;;;;;;;3.96;100.00;99541.97;5119222;28;20482;-69
2024/02/05 03:33:49;;;;;;;19.77;4.45;;;;;;;4.08;100.00;99544.97;5119242;28;20027;-68
2024/02/05 03:36:15;;;;;;;15.52;3.33;;;;;;;4.08;100.00;99572.44;5102440;28;20200;-68
2024/02/05 03:38:40;;;;;;;16.02;1.98;;;;;;;4.03;100.00;99568.66;5117473;28;20024;-68
2024/02/05 03:41:06;;;;;;;15.85;3.13;;;;;;;3.90;100.00;99548.03;5116754;28;20032;-67
2024/02/05 03:43:32;;;;;;;12.10;2.47;;;;;;;4.06;100.00;99563.78;5117489;28;20426;-68
2024/02/05 03:45:57;;;;;;;18.08;4.50;;;;;;;4.11;100.00;99569.38;5116953;28;20055;-68
2024/02/05 03:48:22;;;;;;;16.67;3.42;;;;;;;4.14;100.00;99553.03;5115882;28;20024;-69
2024/02/05 03:50:49;;;;;;;14.77;2.58;;;;;;;4.12;100.00;99578.19;5114996;28;20483;-69
2024/02/05 03:53:14;;;;;;;14.45;2.33;;;;;;;4.13;100.00;99585.16;5078427;28;20149;-68
2024/02/05 03:55:39;;;;;;;23.77;3.50;;;;;;;4.16;100.00;99585.59;5114668;28;20031;-68
2024/02/05 03:58:06;;;;;;;13.75;3.22;;;;;;;4.15;100.00;99586.63;5113972;28;20046;-68
2024/02/05 04:00:31;;;;;;;18.75;2.80;;;;;;;4.09;100.00;99590.03;5115698;28;20444;-69
2024/02/05 04:02:57;;;;;;;13.90;2.90;;;;;;;4.15;100.00;99601.78;5116535;28;20027;-69
2024/02/05 04:05:25;;;;;;;20.58;3.85;;;;;;;4.04;100.00;99581.81;5115497;28;20045;-69
2024/02/05 04:07:51;;;;;;;23.15;3.72;;;;;;;3.98;100.00;99571.91;5116250;28;20020;-68
2024/02/05 04:10:17;;;;;;;11.98;2.42;;;;;;;4.02;100.00;99589.13;5098216;28;20085;-68
2024/02/05 04:12:42;;;;;;;17.73;3.55;;;;;;;3.88;100.00;99566.03;5115121;28;20032;-68
2024/02/05 04:15:11;;;;;;;14.57;3.05;;;;;;;4.03;100.00;99581.97;5115439;28;20031;-68
2024/02/05 04:17:37;;;;;;;14.27;2.53;;;;;;;4.08;100.00;99551.13;5115138;28;20035;-70
2024/02/05 04:20:05;;;;;;;22.65;3.03;;;;;;;4.10;100.00;99586.34;5120005;28;20080;-68
2024/02/05 04:22:30;;;;;;;16.35;3.08;;;;;;;4.07;100.00;99572.59;5102513;28;20034;-69
2024/02/05 04:24:55;;;;;;;13.70;2.42;;;;;;;4.09;100.00;99573.25;5120168;28;20031;-68
2024/02/05 04:27:21;;;;;;;18.00;3.75;;;;;;;4.08;100.00;99588.41;5119617;28;20019;-68
2024/02/05 04:29:46;;;;;;;16.63;3.72;;;;;;;3.99;100.00;99573.53;5118964;28;20032;-68
2024/02/05 04:32:12;;;;;;;17.83;2.90;;;;;;;4.06;100.00;99590.41;5119123;28;20034;-69
2024/02/05 04:34:38;;;;;;;16.60;3.40;;;;;;;3.93;100.00;99563.63;5120137;28;20409;-69
2024/02/05 04:37:04;;;;;;;17.48;3.03;;;;;;;3.97;100.00;99579.06;5101656;28;20056;-69
2024/02/05 04:39:30;;;;;;;14.82;2.80;;;;;;;4.04;100.00;99596.91;5118368;28;20031;-68
2024/02/05 04:41:55;;;;;;;18.30;3.55;;;;;;;4.00;100.00;99585.81;5118774;28;20043;-69
2024/02/05 04:44:20;;;;;;;13.95;2.28;;;;;;;4.04;100.00;99592.44;5118634;28;20023;-69
2024/02/05 04:46:46;;;;;;;22.30;3.50;;;;;;;3.86;100.00;99544.09;5101699;28;20024;-68
2024/02/05 04:49:11;;;;;;;13.73;2.25;;;;;;;3.96;100.00;99581.91;5119418;28;20028;-69
2024/02/05 04:51:37;;;;;;;13.50;2.40;;;;;;;3.84;100.00;99565.59;5123048;28;20050;-68
2024/02/05 04:54:03;;;;;;;21.08;3.20;;;;;;;3.87;100.00;99575.00;5121856;28;20097;-69
2024/02/05 04:56:28;;;;;;;14.40;2.83;;;;;;;3.86;100.00;99574.19;5121913;28;20035;-69
2024/02/05 04:58:54;;;;;;;12.82;1.70;;;;;;;3.97;100.00;99587.03;5118613;28;20031;-68
2024/02/05 05:01:20;;;;;;;7.60;2.00;;;;;;;3.89;100.00;99573.00;5120255;28;20027;-68
2024/02/05 05:03:45;;;;;;;17.02;2.13;;;;;;;4.00;100.00;99602.63;5120138;28;20041;-71
2024/02/05 05:06:10;;;;;;;15.05;3.17;;;;;;;3.95;100.00;99607.69;5102365;28;20038;-68
2024/02/05 05:08:36;;;;;;;22.00;3.75;;;;;;;4.04;100.00;99618.22;5119982;28;20054;-68
2024/02/05 05:11:01;;;;;;;13.63;2.50;;;;;;;4.02;100.00;99613.09;5118729;28;20031;-68
2024/02/05 05:13:27;;;;;;;16.48;3.38;;;;;;;3.97;100.00;99618.13;5084725;28;20032;-67
2024/02/05 05:15:55;;;;;;;18.35;3.33;;;;;;;3.96;100.00;99629.78;5118563;28;20027;-70
2024/02/05 05:18:21;;;;;;;21.55;3.10;;;;;;;3.91;100.00;99597.59;5119447;28;20023;-68
2024/02/05 05:20:46;;;;;;;12.65;2.33;;;;;;;3.89;100.00;99610.25;5118131;28;20027;-68
2024/02/05 05:23:12;;;;;;;16.75;2.85;;;;;;;3.67;100.00;99561.47;5119708;28;20551;-68
2024/02/05 05:25:37;;;;;;;18.08;3.80;;;;;;;3.95;100.00;99622.84;5119479;28;20118;-69
2024/02/05 05:28:03;;;;;;;17.40;3.10;;;;;;;3.91;100.00;99606.41;5118052;28;20048;-68
2024/02/05 05:30:28;;;;;;;15.80;2.70;;;;;;;3.76;100.00;99595.75;5117778;28;20027;-68
2024/02/05 05:32:54;;;;;;;13.43;2.72;;;;;;;3.81;100.00;99602.38;5101072;28;20038;-70
2024/02/05 05:35:19;;;;;;;18.27;2.67;;;;;;;3.97;100.00;99634.09;5100360;28;20027;-70
2024/02/05 05:37:45;;;;;;;19.35;5.13;;;;;;;3.99;100.00;99626.78;5118142;28;20115;-70
2024/02/05 05:40:10;;;;;;;20.83;3.40;;;;;;;3.96;100.00;99630.63;5119088;28;20031;-68
2024/02/05 05:42:37;;;;;;;17.85;3.63;;;;;;;3.99;100.00;99627.59;5101088;28;20032;-68
2024/02/05 05:45:04;;;;;;;16.70;2.90;;;;;;;3.96;100.00;99613.81;5117803;28;20402;-68
2024/02/05 05:47:30;;;;;;;12.65;2.10;;;;;;;3.90;100.00;99620.72;5119530;28;20051;-69
2024/02/05 05:49:55;;;;;;;17.92;2.60;;;;;;;3.99;100.00;99616.13;5118383;28;20067;-68
2024/02/05 05:52:21;;;;;;;14.07;1.98;;;;;;;3.90;100.00;99649.16;5119730;28;20028;-68
2024/02/05 05:54:47;;;;;;;16.48;3.45;;;;;;;3.95;100.00;99630.81;5119675;28;20031;-68
2024/02/05 05:57:13;;;;;;;16.92;3.33;;;;;;;3.87;100.00;99638.88;5119491;28;20513;-68
2024/02/05 05:59:39;;;;;;;19.67;3.03;;;;;;;3.87;100.00;99647.69;5084589;28;20023;-68
2024/02/05 06:02:04;;;;;;;18.92;3.90;;;;;;;3.92;100.00;99652.47;5119469;28;20027;-68
2024/02/05 06:04:30;;;;;;;15.45;3.08;;;;;;;3.93;100.00;99654.13;5101047;28;20042;-69
2024/02/05 06:06:55;;;;;;;18.25;3.38;;;;;;;3.87;100.00;99645.03;5117568;28;20016;-69
2024/02/05 06:09:21;;;;;;;18.00;2.70;;;;;;;3.89;100.00;99656.31;5083683;28;20154;-69
2024/02/05 06:11:46;;;;;;;11.82;2.72;;;;;;;3.87;100.00;99650.34;5119143;28;20107;-68
2024/02/05 06:14:12;;;;;;;12.18;2.50;;;;;;;3.61;100.00;99615.41;5118758;28;20415;-69
2024/02/05 06:16:43;;;;;;;22.08;2.80;;;;;;;3.85;100.00;99656.88;5117053;28;20020;-69
2024/02/05 06:19:08;;;;;;;17.27;3.90;;;;;;;3.85;100.00;99660.38;5118802;28;20049;-69
2024/02/05 06:21:34;;;;;;;12.02;2.75;;;;;;;3.86;100.00;99643.38;5118388;28;20031;-69
2024/02/05 06:23:59;;;;;;;15.10;2.85;;;;;;;3.86;100.00;99663.84;5116979;28;20034;-69
2024/02/05 06:26:25;;;;;;;12.98;2.70;;;;;;;3.76;100.00;99648.97;5118680;28;20027;-68
2024/02/05 06:28:50;;;;;;;16.70;3.45;;;;;;;3.69;100.00;99640.09;5118577;28;20031;-68
2024/02/05 06:31:16;;;;;;;22.38;4.53;;;;;;;3.88;100.00;99672.50;5117772;28;20032;-69
2024/02/05 06:33:42;;;;;;;13.23;2.75;;;;;;;3.65;100.00;99644.13;5118543;28;20509;-72
2024/02/05 06:36:09;;;;;;;18.63;3.85;;;;;;;3.81;100.00;99674.22;5100012;28;20102;-68
2024/02/05 06:38:34;;;;;;;18.45;2.60;;;;;;;3.75;100.00;99679.25;5117055;28;20024;-68
2024/02/05 06:41:00;;;;;;;15.35;2.97;;;;;;;3.74;100.00;99684.75;5117214;28;20115;-68
2024/02/05 06:43:25;;;;;;;14.13;2.85;;;;;;;3.77;100.00;99676.41;5116682;28;20032;-68
2024/02/05 06:45:51;;;;;;;17.05;3.17;;;;;;;3.79;100.00;99694.88;5118271;28;20054;-70
2024/02/05 06:48:16;;;;;;;18.45;3.90;;;;;;;3.80;100.00;99701.81;5117951;28;20055;-70
2024/02/05 06:50:42;;;;;;;19.48;4.38;;;;;;;3.72;100.00;99668.97;5117777;28;20028;-68
2024/02/05 06:53:07;;;;;;;21.50;4.10;;;;;;;3.75;100.00;99689.09;5116749;28;20118;-68
2024/02/05 06:55:32;;;;;;;13.50;3.13;;;;;;;3.76;100.00;99706.69;5116681;28;20032;-69
2024/02/05 06:57:58;;;;;;;18.63;3.35;;;;;;;3.73;100.00;99707.88;5112975;28;20584;-68
2024/02/05 07:00:23;;;;;;;16.73;2.88;;;;;;;3.71;100.00;99725.88;5114315;28;20144;-69
2024/02/05 07:02:52;;;;;;;22.15;4.07;;;;;;;3.62;100.00;99694.22;5116522;28;20072;-68
2024/02/05 07:05:18;;;;;;;17.52;2.83;;;;;;;3.53;100.00;99693.44;5115517;28;20028;-69
2024/02/05 07:07:43;;;;;;;17.17;3.00;;;;;;;3.68;100.00;99715.59;5119144;28;20237;-69
2024/02/05 07:10:09;;;;;;;16.42;2.70;;;;;;;3.72;100.00;99722.19;5121876;28;20351;-67
2024/02/05 07:12:35;;;;;;;18.98;3.92;;;;;;;3.74;100.00;99725.50;5106112;28;20032;-67
2024/02/05 07:15:00;;;;;;;22.25;4.20;;;;;;;3.67;100.00;99708.59;5125269;28;20031;-66
2024/02/05 07:17:34;;;;;;;20.17;3.35;;;;;;;3.66;100.00;99720.25;5120668;28;20470;-68
2024/02/05 07:20:01;;;;;;;13.90;2.65;;;;;;;3.67;100.00;99737.84;5119318;28;20026;-68
2024/02/05 07:22:30;;;;;;;17.02;2.67;;;;;;;3.66;100.00;99703.47;5118188;28;20030;-68
2024/02/05 07:24:56;;;;;;;20.55;4.10;;;;;;;3.73;100.00;99734.47;5117310;28;20252;-68
2024/02/05 07:27:26;;;;;;;23.85;3.15;;;;;;;3.69;100.00;99730.53;5117072;28;20035;-68
2024/02/05 07:29:52;;;;;;;19.63;2.95;;;;;;;3.64;100.00;99721.44;5118146;28;20031;-67
2024/02/05 07:32:18;;;;;;;17.95;2.95;;;;;;;3.68;100.00;99715.59;5118919;28;20027;-68
2024/02/05 07:34:43;;;;;;;15.68;3.22;;;;;;;3.69;100.00;99735.03;5118451;28;20026;-69
2024/02/05 07:37:09;;;;;;;15.75;2.97;;;;;;;3.68;100.00;99734.22;5116568;28;20044;-68
2024/02/05 07:39:34;;;;;;;16.02;3.25;;;;;;;3.78;100.00;99751.75;5116298;28;20035;-67
2024/02/05 07:42:00;;;;;;;13.65;2.88;;;;;;;3.72;100.00;99735.50;5117328;28;20168;-68
2024/02/05 07:44:26;;;;;;;17.17;3.58;;;;;;;3.63;100.00;99741.91;5116743;28;20057;-69
2024/02/05 07:46:52;;;;;;;17.27;3.70;;;;;;;3.61;100.00;99697.84;5117815;28;20541;-70
2024/02/05 07:49:18;;;;;;;18.08;3.58;;;;;;;3.75;100.00;99726.34;5099128;28;20032;-69
2024/02/05 07:51:47;;;;;;;20.35;3.97;;;;;;;3.53;100.00;99712.06;5115490;28;20444;-70
2024/02/05 07:54:13;;;;;;;15.30;3.08;;;;;;;3.70;100.00;99736.69;5120538;28;20057;-69
2024/02/05 07:56:41;;;;;;;16.92;3.15;;;;;;;3.72;100.00;99737.34;5122577;28;20035;-69
2024/02/05 07:59:07;;;;;;;15.95;2.83;;;;;;;3.60;100.00;99720.97;5120590;28;20023;-70
2024/02/05 08:01:33;;;;;;;13.68;2.95;;;;;;;3.70;100.00;99723.38;5123330;28;20058;-68
2024/02/05 08:03:58;;;;;;;16.13;3.35;;;;;;;3.71;100.00;99736.50;5119691;28;20036;-68
2024/02/05 08:06:25;;;;;;;15.07;2.83;;;;;;;3.75;100.00;99748.44;5120364;28;20019;-69
2024/02/05 08:08:51;;;;;;;16.17;2.63;;;;;;;3.76;100.00;99728.81;5119890;28;20031;-69
2024/02/05 08:11:17;;;;;;;20.05;3.25;;;;;;;3.60;100.00;99726.28;5102781;28;20394;-68
2024/02/05 08:13:42;;;;;;;13.23;2.75;;;;;;;3.64;100.00;99738.25;5119775;28;20097;-69
2024/02/05 08:16:07;;;;;;;13.95;2.97;;;;;;;3.73;100.00;99747.78;5119012;28;20023;-69
2024/02/05 08:18:33;;;;;;;10.35;2.22;;;;;;;3.72;100.00;99764.75;5119555;28;20093;-69
2024/02/05 08:20:59;;;;;;;20.10;4.20;;;;;;;3.76;100.00;99730.63;5120590;28;20028;-68
2024/02/05 08:23:25;;;;;;;18.40;2.60;;;;;;;3.61;100.00;99733.28;5120249;28;20402;-69
2024/02/05 08:25:50;;;;;;;19.60;4.32;;;;;;;3.62;100.00;99715.50;5120475;28;20028;-69
2024/02/05 08:28:16;;;;;;;13.63;2.97;;;;;;;3.75;100.00;99776.88;5120751;27;20032;-69
2024/02/05 08:30:41;;;;;;;12.20;3.03;;;;;;;3.55;100.00;99741.97;5118915;28;20123;-68
2024/02/05 08:33:06;;;;;;;19.95;3.38;;;;;;;3.71;100.00;99772.94;5118978;28;20535;-69
2024/02/05 08:35:32;;;;;;;19.40;3.05;;;;;;;3.55;100.00;99731.34;5119991;28;20410;-68
2024/02/05 08:37:57;;;;;;;14.43;3.60;;;;;;;3.68;100.00;99760.81;5118662;28;20035;-70
2024/02/05 08:40:22;;;;;;;15.50;2.50;;;;;;;3.58;100.00;99735.47;5120643;27;20023;-68
2024/02/05 08:42:48;;;;;;;22.85;3.25;;;;;;;3.72;100.00;99772.75;5120541;28;20035;-69
2024/02/05 08:45:14;;;;;;;20.58;4.05;;;;;;;3.68;100.00;99760.81;5118780;28;20046;-69
2024/02/05 08:47:42;;;;;;;16.23;2.60;;;;;;;3.43;100.00;99722.13;5120088;28;20031;-68
2024/02/05 08:50:08;;;;;;;15.57;2.75;;;;;;;3.67;100.00;99767.13;5120519;28;20031;-68
2024/02/05 08:52:33;;;;;;;22.25;4.28;;;;;;;3.67;100.00;99769.78;5120326;27;20027;-68
2024/02/05 08:54:58;;;;;;;15.80;3.05;;;;;;;3.62;100.00;99761.53;5101750;28;20038;-69
2024/02/05 08:57:23;;;;;;;13.25;2.47;;;;;;;3.61;100.00;99769.66;5118934;28;20024;-68
2024/02/05 08:59:50;;;;;;;22.10;3.25;;;;;;;3.67;100.00;99799.03;5119805;28;20023;-68
2024/02/05 09:02:18;;;;;;;19.95;3.65;;;;;;;3.66;100.00;99800.06;5085220;28;20032;-69
2024/02/05 09:04:43;;;;;;;17.38;4.35;;;;;;;3.65;100.00;99773.66;5119046;28;20026;-67
2024/02/05 09:07:09;;;;;;;16.33;3.45;;;;;;;3.56;100.00;99774.72;5101454;28;20032;-68
2024/02/05 09:09:36;;;;;;;13.07;3.28;;;;;;;3.61;100.00;99764.34;5120192;28;20549;-68
2024/02/05 09:12:02;;;;;;;14.80;3.08;;;;;;;3.61;100.00;99761.69;5118396;28;20027;-68
2024/02/05 09:14:27;;;;;;;17.33;3.35;;;;;;;3.63;100.00;99794.28;5118267;28;20070;-68
2024/02/05 09:16:53;;;;;;;17.40;3.22;;;;;;;3.62;100.00;99777.50;5117903;28;20426;-69
2024/02/05 09:19:19;;;;;;;19.13;3.85;;;;;;;3.63;100.00;99795.09;5118633;28;20062;-68
2024/02/05 09:21:44;;;;;;;16.05;3.00;;;;;;;3.59;100.00;99774.38;5118343;28;20393;-69
2024/02/05 09:24:09;;;;;;;14.02;2.75;;;;;;;3.56;100.00;99774.72;5117812;28;20114;-68
2024/02/05 09:26:36;;;;;;;11.73;3.03;;;;;;;3.61;100.00;99773.19;5119647;28;20023;-68
2024/02/05 09:29:01;;;;;;;17.08;3.58;;;;;;;3.64;100.00;99795.91;5118078;28;20394;-68
2024/02/05 09:31:27;;;;;;;16.45;3.45;;;;;;;3.63;100.00;99771.16;5118083;28;20096;-68
2024/02/05 09:33:52;;;;;;;13.73;3.03;;;;;;;3.63;100.00;99791.63;5121043;28;20032;-69
2024/02/05 09:36:18;;;;;;;18.67;4.60;;;;;;;3.61;100.00;99796.28;5122386;28;20082;-71
2024/02/05 09:38:44;;;;;;;13.88;2.83;;;;;;;3.60;100.00;99803.44;5124645;28;20053;-69
2024/02/05 09:41:11;;;;;;;14.13;2.40;;;;;;;3.59;100.00;99800.97;5121862;28;20031;-68
2024/02/05 09:43:38;;;;;;;17.33;2.58;;;;;;;3.60;100.00;99808.75;5118884;28;20040;-68
2024/02/05 09:46:05;;;;;;;12.63;2.97;;;;;;;3.57;100.00;99798.47;5084850;28;20028;-68
2024/02/05 09:48:35;;;;;;;16.50;2.92;;;;;;;3.57;100.00;99808.28;5101184;28;20095;-68
2024/02/05 09:51:01;;;;;;;13.85;2.97;;;;;;;3.48;100.00;99786.25;5119696;28;20107;-68
2024/02/05 09:53:29;;;;;;;15.40;2.63;;;;;;;3.65;100.00;99818.88;5119704;28;20046;-69
2024/02/05 09:55:56;;;;;;;12.73;2.13;;;;;;;3.66;100.00;99825.84;5119231;28;20031;-68
2024/02/05 09:58:21;;;;;;;10.93;2.17;;;;;;;3.27;100.00;99762.97;5117420;28;20498;-68
2024/02/05 10:00:47;;;;;;;9.73;1.77;;;;;;;3.65;100.00;99811.72;5117574;28;20077;-68
2024/02/05 10:03:16;;;;;;;14.45;2.80;;;;;;;3.68;100.00;99815.88;5118795;28;20078;-68
2024/02/05 10:05:42;;;;;;;13.82;2.33;;;;;;;3.69;100.00;99788.25;5118387;28;20088;-68
2024/02/05 10:08:08;;;;;;;17.25;3.33;;;;;;;3.26;100.00;99775.44;5100010;28;20165;-69
2024/02/05 10:10:35;;;;;;;18.65;3.10;;;;;;;3.66;100.00;99847.13;5116875;28;20089;-68
2024/02/05 10:13:02;;;;;;;15.10;2.67;;;;;;;3.56;100.00;99847.34;5116666;28;20031;-68
2024/02/05 10:15:29;;;;;;;11.27;2.25;;;;;;;3.61;100.00;99836.19;5116636;28;20028;-68
2024/02/05 10:17:54;;;;;;;15.40;2.60;;;;;;;3.60;100.00;99837.19;5115851;28;20052;-69
2024/02/05 10:20:29;;;;;;;9.30;2.08;;;;;;;3.39;100.00;99795.28;5117114;28;20020;-68
2024/02/05 10:22:54;;;;;;;17.08;2.90;;;;;;;3.61;100.00;99837.03;5118150;28;20023;-69
2024/02/05 10:25:19;;;;;;;11.70;2.65;;;;;;;3.56;100.00;99836.72;5118542;27;20103;-68
2024/02/05 10:27:45;;;;;;;14.85;2.80;;;;;;;3.61;100.00;99847.66;5099815;28;20068;-68
2024/02/05 10:30:10;;;;;;;11.23;2.33;;;;;;;3.48;100.00;99828.81;5099876;28;20110;-69
2024/02/05 10:32:36;;;;;;;9.18;1.73;;;;;;;3.62;100.00;99851.97;5117985;28;20028;-69
2024/02/05 10:35:02;;;;;;;12.65;2.35;;;;;;;3.59;100.00;99852.31;5118453;27;20036;-68
2024/02/05 10:37:29;;;;;;;14.35;3.22;;;;;;;3.57;100.00;99851.66;5118228;28;20048;-68
2024/02/05 10:40:05;;;;;;;12.50;2.58;;;;;;;3.55;100.00;99863.50;5118481;28;20031;-68
2024/02/05 10:42:32;;;;;;;14.98;2.67;;;;;;;3.38;100.00;99858.28;5118411;28;20050;-71
2024/02/05 10:44:58;;;;;;;14.60;2.33;;;;;;;3.55;100.00;99853.69;5118272;27;20028;-68
2024/02/05 10:47:24;;;;;;;6.63;1.30;;;;;;;3.56;100.00;99868.63;5105642;28;20099;-73
2024/02/05 10:49:49;;;;;;;11.43;2.10;;;;;;;3.57;100.00;99882.75;5105986;28;20030;-69
2024/02/05 10:52:15;;;;;;;9.90;2.05;;;;;;;3.53;100.00;99883.13;5122067;28;20030;-68
2024/02/05 10:54:44;;;;;;;13.88;2.15;;;;;;;3.50;100.00;99878.13;5118933;28;20031;-68
2024/02/05 10:57:13;;;;;;;13.65;2.90;;;;;;;3.39;100.00;99873.25;5118064;28;20032;-68
2024/02/05 10:59:38;;;;;;;14.93;2.22;;;;;;;3.55;100.00;99874.16;5116814;28;20024;-68
2024/02/05 11:02:33;;;;;;;10.40;1.88;;;;;;;3.58;100.00;99879.13;5099450;28;20038;-67
2024/02/05 11:05:02;;;;;;;11.20;2.20;;;;;;;3.56;100.00;99876.63;5117822;28;20019;-69
2024/02/05 11:07:34;;;;;;;15.50;2.40;;;;;;;3.51;100.00;99877.16;5116728;28;20106;-68
2024/02/05 11:10:04;;;;;;;12.55;2.28;;;;;;;3.53;100.00;99882.28;5116224;28;20110;-68
2024/02/05 11:12:34;;;;;;;9.25;2.20;;;;;;;3.44;100.00;99862.06;5118025;28;20123;-70
2024/02/05 11:15:05;;;;;;;10.23;2.00;;;;;;;3.50;100.00;99879.97;5100540;28;20428;-68
2024/02/05 11:17:34;;;;;;;12.32;2.10;;;;;;;3.58;100.00;99889.75;5116060;28;20028;-68
2024/02/05 11:20:01;;;;;;;7.60;1.52;;;;;;;3.55;100.00;99890.94;5117531;28;20023;-68